Time;durP1;ratioP1;P1;durP2;ratioP2;P2;SDS_P1;SDS_P2;PMS_P1;PMS_P2;Temp;Humidity;BMP_temperature;BMP_pressure;BME280_temperature;BME280_humidity;BME280_pressure;Samples;Min_cycle;Max_cycle;Signal;HPM_P1;HPM_P2
2022/07/30 00:01:32;;;;;;;9.90;4.85;;;;;;;17.52;64.37;99758.34;5012146;28;20498;-69
2022/07/30 00:03:59;;;;;;;14.95;4.35;;;;;;;17.46;64.48;99757.03;5011054;28;20152;-69
2022/07/30 00:06:26;;;;;;;7.38;3.53;;;;;;;17.44;64.13;99758.09;5010654;28;20490;-69
2022/07/30 00:08:52;;;;;;;6.78;3.30;;;;;;;17.41;64.65;99753.03;5010671;28;20059;-69
2022/07/30 00:11:20;;;;;;;9.02;3.60;;;;;;;17.39;64.67;99761.13;5010537;28;20050;-69
2022/07/30 00:13:47;;;;;;;7.75;4.40;;;;;;;17.36;65.02;99750.72;5010554;28;20057;-70
2022/07/30 00:16:14;;;;;;;7.70;3.78;;;;;;;17.37;65.03;99761.25;5010052;28;20060;-68
2022/07/30 00:18:40;;;;;;;6.35;3.28;;;;;;;17.39;65.14;99763.78;5010613;28;20050;-69
2022/07/30 00:21:07;;;;;;;4.10;3.20;;;;;;;17.39;64.76;99763.78;5010568;28;20060;-69
2022/07/30 00:23:33;;;;;;;5.72;3.83;;;;;;;17.42;64.77;99765.38;5010449;28;20053;-70
2022/07/30 00:26:00;;;;;;;5.13;4.20;;;;;;;17.41;64.75;99766.34;5009652;28;20563;-68
2022/07/30 00:28:28;;;;;;;7.57;4.38;;;;;;;17.37;65.29;99771.06;5010612;28;20046;-68
2022/07/30 00:30:55;;;;;;;7.97;4.43;;;;;;;17.37;64.94;99766.56;5010237;28;20465;-69
2022/07/30 00:33:21;;;;;;;8.55;3.50;;;;;;;17.39;65.09;99767.31;5010684;28;20050;-69
2022/07/30 00:35:48;;;;;;;7.45;3.80;;;;;;;17.41;64.75;99774.34;5011116;28;20046;-69
2022/07/30 00:38:14;;;;;;;9.02;3.60;;;;;;;17.41;65.05;99771.69;5025426;28;20481;-70
2022/07/30 00:40:41;;;;;;;5.80;4.07;;;;;;;17.42;64.91;99773.38;5030525;28;20358;-69
2022/07/30 00:43:08;;;;;;;7.05;4.15;;;;;;;17.45;64.79;99768.66;5031246;28;20083;-70
2022/07/30 00:45:37;;;;;;;5.25;3.28;;;;;;;17.48;64.17;99765.75;5030495;28;20053;-69
2022/07/30 00:48:04;;;;;;;8.50;4.70;;;;;;;17.54;63.85;99759.91;5031255;28;20689;-69
2022/07/30 00:50:31;;;;;;;5.20;3.80;;;;;;;17.58;63.36;99763.22;5030998;28;20408;-69
2022/07/30 00:52:57;;;;;;;8.13;4.25;;;;;;;17.55;64.36;99760.78;5030924;28;20103;-70
2022/07/30 00:55:24;;;;;;;7.80;4.65;;;;;;;17.52;63.83;99761.88;5030425;28;20057;-69
2022/07/30 00:57:50;;;;;;;4.68;3.78;;;;;;;17.51;63.97;99762.84;5029292;28;20053;-70
2022/07/30 01:00:18;;;;;;;7.57;4.72;;;;;;;17.49;64.18;99764.75;5030164;28;20049;-70
2022/07/30 01:02:45;;;;;;;9.95;3.88;;;;;;;17.48;64.40;99763.09;5014831;28;20064;-69
2022/07/30 01:05:12;;;;;;;6.85;4.13;;;;;;;17.49;63.44;99762.09;5009263;28;20045;-68
2022/07/30 01:07:39;;;;;;;7.03;4.65;;;;;;;17.56;63.76;99765.16;5009407;28;20056;-69
2022/07/30 01:10:08;;;;;;;7.40;3.58;;;;;;;17.53;63.79;99765.38;5009968;28;20045;-68
2022/07/30 01:12:35;;;;;;;5.45;4.32;;;;;;;17.51;64.21;99760.16;5009826;28;20434;-68
2022/07/30 01:15:04;;;;;;;11.43;5.32;;;;;;;17.51;63.91;99768.16;5009286;28;20057;-69
2022/07/30 01:17:31;;;;;;;5.68;3.70;;;;;;;17.52;63.66;99764.56;5009890;28;20057;-69
2022/07/30 01:20:04;;;;;;;8.77;4.95;;;;;;;17.57;63.13;99759.69;5009624;28;20048;-69
2022/07/30 01:22:47;;;;;;;9.70;4.97;;;;;;;17.60;63.08;99758.63;5009606;28;20060;-69
2022/07/30 01:25:20;;;;;;;6.28;3.67;;;;;;;17.56;63.03;99758.00;5015970;28;20140;-69
2022/07/30 01:27:51;;;;;;;6.57;4.43;;;;;;;17.55;62.96;99761.63;5029449;28;20053;-69
2022/07/30 01:30:21;;;;;;;12.30;4.25;;;;;;;17.48;63.31;99760.41;5029406;28;20049;-70
2022/07/30 01:32:50;;;;;;;6.53;4.07;;;;;;;17.46;63.45;99761.50;5029199;28;20157;-69
2022/07/30 01:35:20;;;;;;;8.07;4.13;;;;;;;17.49;62.89;99764.75;5022737;28;20049;-69
2022/07/30 01:37:47;;;;;;;8.15;4.30;;;;;;;17.51;62.59;99762.00;5028716;28;20049;-68
2022/07/30 01:40:15;;;;;;;10.45;4.57;;;;;;;17.49;62.71;99766.59;5029308;28;20054;-69
2022/07/30 01:42:43;;;;;;;9.32;4.43;;;;;;;17.51;61.94;99768.16;5029332;28;20050;-68
2022/07/30 01:45:12;;;;;;;8.00;4.78;;;;;;;17.51;62.31;99764.66;5028571;28;20056;-68
2022/07/30 01:47:41;;;;;;;9.30;4.57;;;;;;;17.48;62.69;99765.75;5029395;28;20127;-67
2022/07/30 01:50:12;;;;;;;7.22;4.57;;;;;;;17.44;62.43;99764.28;5029134;28;20405;-69
2022/07/30 01:52:41;;;;;;;7.68;4.40;;;;;;;17.43;62.52;99775.94;5028846;28;20060;-68
2022/07/30 01:55:10;;;;;;;10.63;5.00;;;;;;;17.41;62.71;99767.19;5028616;28;20060;-69
2022/07/30 01:57:38;;;;;;;5.47;4.57;;;;;;;17.39;62.89;99777.97;5029043;28;20128;-69
2022/07/30 02:00:07;;;;;;;7.35;4.72;;;;;;;17.35;63.17;99778.31;5028913;28;20053;-69
2022/07/30 02:02:37;;;;;;;9.40;4.63;;;;;;;17.31;63.31;99777.72;5029086;28;20050;-68
2022/07/30 02:05:05;;;;;;;6.72;4.38;;;;;;;17.30;63.45;99780.50;5028784;28;20067;-68
2022/07/30 02:07:37;;;;;;;8.45;4.97;;;;;;;17.26;63.27;99776.38;5019796;28;20054;-69
2022/07/30 02:10:10;;;;;;;7.10;4.22;;;;;;;17.20;63.79;99780.34;5009157;28;20554;-69
2022/07/30 02:12:42;;;;;;;6.38;4.30;;;;;;;17.15;63.99;99780.72;5009349;28;20394;-68
2022/07/30 02:15:14;;;;;;;5.47;4.18;;;;;;;17.14;64.02;99776.34;5010838;28;20053;-69
2022/07/30 02:17:45;;;;;;;6.90;4.28;;;;;;;17.11;64.22;99786.41;5013004;28;20133;-69
2022/07/30 02:20:14;;;;;;;7.55;4.95;;;;;;;17.04;64.36;99780.69;5012683;28;20129;-69
2022/07/30 02:22:46;;;;;;;7.30;4.90;;;;;;;17.00;64.43;99784.53;5012711;28;20045;-69
2022/07/30 02:25:17;;;;;;;11.00;4.53;;;;;;;16.97;64.51;99778.59;5011948;28;20050;-69
2022/07/30 02:27:48;;;;;;;7.65;4.65;;;;;;;16.89;65.15;99780.03;5012729;28;20506;-69
2022/07/30 02:30:15;;;;;;;7.60;5.25;;;;;;;16.84;65.30;99784.03;5022419;28;20045;-70
2022/07/30 02:32:44;;;;;;;11.90;6.00;;;;;;;16.75;65.55;99780.19;5029902;28;20124;-70
2022/07/30 02:35:15;;;;;;;9.85;5.13;;;;;;;16.65;66.34;99781.84;5031537;28;20054;-69
2022/07/30 02:37:43;;;;;;;9.65;5.75;;;;;;;16.54;66.56;99785.31;5032640;28;20433;-71
2022/07/30 02:40:13;;;;;;;12.70;5.68;;;;;;;16.45;66.68;99781.50;5032066;28;20056;-71
2022/07/30 02:42:41;;;;;;;11.45;6.28;;;;;;;16.36;67.23;99770.69;5032332;28;20128;-71
2022/07/30 02:45:10;;;;;;;10.10;6.07;;;;;;;16.31;67.14;99787.00;5031528;28;20049;-70
2022/07/30 02:47:38;;;;;;;9.40;6.13;;;;;;;16.31;66.75;99784.31;5032030;28;20049;-70
2022/07/30 02:50:09;;;;;;;11.27;6.22;;;;;;;16.25;67.19;99782.13;5032057;28;20053;-69
2022/07/30 02:52:37;;;;;;;14.32;5.40;;;;;;;16.19;67.31;99786.06;5032207;28;20053;-68
2022/07/30 02:55:05;;;;;;;7.63;6.07;;;;;;;16.17;67.53;99782.69;5031106;28;20055;-70
2022/07/30 02:57:34;;;;;;;9.73;5.30;;;;;;;16.14;67.59;99782.06;5032155;28;20441;-69
2022/07/30 03:00:02;;;;;;;8.65;5.90;;;;;;;16.12;67.54;99787.50;5031472;28;20056;-69
2022/07/30 03:02:29;;;;;;;7.13;6.03;;;;;;;16.08;67.38;99778.88;5031696;28;20140;-70
2022/07/30 03:04:57;;;;;;;9.60;5.93;;;;;;;16.08;67.90;99775.38;5031555;28;20431;-70
2022/07/30 03:07:28;;;;;;;11.18;6.80;;;;;;;16.05;67.66;99776.44;5028064;28;20476;-62
2022/07/30 03:09:56;;;;;;;8.10;6.45;;;;;;;16.10;67.64;99778.78;5031589;28;20049;-51
2022/07/30 03:12:25;;;;;;;8.40;6.05;;;;;;;16.08;67.76;99776.22;5014301;28;20053;-51
2022/07/30 03:14:52;;;;;;;15.30;7.65;;;;;;;16.12;67.57;99778.66;5011001;28;20052;-53
2022/07/30 03:17:22;;;;;;;10.20;6.03;;;;;;;16.05;67.60;99789.75;5012044;28;20087;-50
2022/07/30 03:19:50;;;;;;;10.43;6.30;;;;;;;15.97;68.06;99786.75;5011652;28;20046;-50
2022/07/30 03:22:18;;;;;;;11.63;7.15;;;;;;;16.07;67.50;99784.28;5011733;28;20068;-49
2022/07/30 03:24:49;;;;;;;8.93;6.50;;;;;;;16.05;67.82;99792.41;5010432;28;20539;-52
2022/07/30 03:27:17;;;;;;;9.23;6.43;;;;;;;16.11;67.28;99793.75;5027324;28;20055;-48
2022/07/30 03:29:45;;;;;;;12.57;6.40;;;;;;;16.06;67.66;99794.09;5031263;28;20049;-52
2022/07/30 03:32:13;;;;;;;13.63;7.32;;;;;;;15.98;67.78;99798.28;5031303;28;20520;-48
2022/07/30 03:34:41;;;;;;;14.18;7.00;;;;;;;15.84;68.06;99799.25;5030917;28;20057;-48
2022/07/30 03:37:09;;;;;;;10.18;6.60;;;;;;;15.85;68.05;99806.25;5020206;28;20054;-50
2022/07/30 03:39:37;;;;;;;11.77;7.72;;;;;;;15.96;67.72;99808.16;5011439;28;20505;-49
2022/07/30 03:42:07;;;;;;;11.15;7.90;;;;;;;16.09;66.87;99806.31;5011539;28;20480;-45
2022/07/30 03:44:34;;;;;;;11.55;6.93;;;;;;;16.24;66.52;99809.69;5010650;28;20513;-45
2022/07/30 03:47:02;;;;;;;7.80;6.68;;;;;;;16.27;66.13;99814.78;5011251;28;20525;-55
2022/07/30 03:49:29;;;;;;;10.80;6.65;;;;;;;16.17;66.73;99811.94;5011149;28;20064;-52
2022/07/30 03:51:55;;;;;;;10.23;6.25;;;;;;;16.15;66.65;99821.00;5011147;28;20438;-51
2022/07/30 03:54:23;;;;;;;15.95;7.45;;;;;;;16.17;66.32;99819.06;5010264;28;20132;-50
2022/07/30 03:56:50;;;;;;;11.77;7.35;;;;;;;16.05;67.04;99826.13;5011250;28;20045;-54
2022/07/30 03:59:18;;;;;;;10.73;7.18;;;;;;;16.05;66.95;99828.78;5010622;28;20057;-47
2022/07/30 04:01:45;;;;;;;10.88;7.75;;;;;;;16.19;66.49;99830.44;5010852;28;20409;-53
2022/07/30 04:04:11;;;;;;;11.50;7.05;;;;;;;16.28;66.26;99827.13;5010143;28;20049;-49
2022/07/30 04:06:39;;;;;;;15.07;8.77;;;;;;;16.22;66.22;99833.75;5011962;28;20054;-49
2022/07/30 04:09:07;;;;;;;9.55;7.72;;;;;;;16.24;66.44;99831.84;5030313;28;20603;-49
2022/07/30 04:11:33;;;;;;;10.65;8.02;;;;;;;16.24;66.46;99829.16;5030725;28;20104;-69
2022/07/30 04:14:00;;;;;;;13.48;8.82;;;;;;;16.09;66.75;99827.59;5030303;28;20085;-68
2022/07/30 04:16:35;;;;;;;12.98;9.50;;;;;;;15.98;67.64;99831.03;5030084;28;20057;-70
2022/07/30 04:19:05;;;;;;;21.50;9.27;;;;;;;15.92;67.83;99825.28;5026858;28;20049;-70
2022/07/30 04:21:33;;;;;;;16.45;9.65;;;;;;;15.84;68.12;99833.81;5025875;28;20056;-69
2022/07/30 04:24:01;;;;;;;14.20;8.48;;;;;;;15.77;68.36;99827.22;5029417;28;20049;-70
2022/07/30 04:26:30;;;;;;;15.60;8.88;;;;;;;15.68;68.87;99829.53;5029019;28;20536;-69
2022/07/30 04:28:57;;;;;;;13.43;9.13;;;;;;;15.64;69.42;99830.69;5029594;28;20140;-70
2022/07/30 04:31:25;;;;;;;13.32;9.20;;;;;;;15.64;69.51;99838.66;5029468;28;20456;-68
2022/07/30 04:33:53;;;;;;;14.90;10.32;;;;;;;15.65;69.87;99839.50;5029290;28;20503;-69
2022/07/30 04:36:19;;;;;;;12.82;8.85;;;;;;;15.62;69.94;99834.41;5029003;28;20532;-69
2022/07/30 04:38:46;;;;;;;12.57;9.55;;;;;;;15.66;70.22;99841.22;5029217;28;20097;-69
2022/07/30 04:41:13;;;;;;;12.05;9.68;;;;;;;15.67;70.11;99841.09;5029193;28;20128;-69
2022/07/30 04:43:40;;;;;;;14.25;10.25;;;;;;;15.68;70.40;99840.16;5029580;28;20045;-69
2022/07/30 04:46:06;;;;;;;20.38;11.25;;;;;;;15.68;70.39;99842.81;5029218;28;20054;-69
2022/07/30 04:48:33;;;;;;;13.18;8.55;;;;;;;15.70;70.15;99848.03;5029267;28;20060;-69
2022/07/30 04:51:05;;;;;;;15.57;10.10;;;;;;;15.72;70.44;99847.94;5029486;28;20404;-69
2022/07/30 04:53:33;;;;;;;13.38;10.77;;;;;;;15.73;70.61;99855.84;5029531;28;20052;-69
2022/07/30 04:56:01;;;;;;;12.38;9.73;;;;;;;15.74;70.56;99852.19;5028967;28;20060;-70
2022/07/30 04:58:28;;;;;;;20.63;11.38;;;;;;;15.79;71.08;99849.22;5029138;28;20055;-69
2022/07/30 05:00:58;;;;;;;16.23;12.00;;;;;;;15.80;71.36;99853.56;5028447;28;20049;-70
2022/07/30 05:03:25;;;;;;;20.83;12.60;;;;;;;15.87;71.60;99862.81;5029194;28;20050;-70
2022/07/30 05:05:52;;;;;;;23.08;15.05;;;;;;;15.93;72.36;99862.41;5028750;28;20057;-69
2022/07/30 05:08:20;;;;;;;21.33;15.40;;;;;;;15.95;72.61;99863.16;5028827;28;20049;-70
2022/07/30 05:10:47;;;;;;;24.98;16.50;;;;;;;15.99;72.00;99861.13;5028637;28;20523;-70
2022/07/30 05:13:15;;;;;;;25.33;15.98;;;;;;;16.07;72.39;99864.06;5028973;28;20052;-70
2022/07/30 05:15:43;;;;;;;21.50;15.60;;;;;;;16.09;72.62;99872.81;5028542;28;20056;-71
2022/07/30 05:18:10;;;;;;;25.63;17.42;;;;;;;16.11;72.85;99868.22;5028938;28;20103;-70
2022/07/30 05:20:37;;;;;;;31.60;18.98;;;;;;;16.18;72.24;99873.97;5022509;28;20057;-70
2022/07/30 05:23:03;;;;;;;29.42;17.65;;;;;;;16.20;72.44;99872.06;5028726;28;20519;-70
2022/07/30 05:25:31;;;;;;;28.42;17.55;;;;;;;16.20;73.29;99878.22;5028724;28;20132;-70
2022/07/30 05:27:58;;;;;;;26.75;18.73;;;;;;;16.30;73.02;99876.59;5028542;28;20049;-69
2022/07/30 05:30:25;;;;;;;28.20;16.25;;;;;;;16.38;72.63;99880.53;5028718;28;20060;-70
2022/07/30 05:32:52;;;;;;;35.33;22.50;;;;;;;16.40;74.50;99876.78;5028250;28;20757;-69
2022/07/30 05:35:18;;;;;;;32.50;21.42;;;;;;;16.37;75.15;99882.34;5028409;28;20057;-71
2022/07/30 05:37:45;;;;;;;29.33;20.95;;;;;;;16.39;74.72;99887.53;5025195;28;20053;-71
2022/07/30 05:40:12;;;;;;;35.50;22.98;;;;;;;16.41;75.04;99885.63;5008703;28;20050;-72
2022/07/30 05:42:41;;;;;;;28.13;20.13;;;;;;;16.46;75.20;99892.31;5008547;28;20046;-71
2022/07/30 05:45:08;;;;;;;29.45;20.92;;;;;;;16.48;75.38;99895.72;5008637;28;20383;-71
2022/07/30 05:47:35;;;;;;;31.70;21.77;;;;;;;16.53;75.17;99895.38;5009087;28;20136;-70
2022/07/30 05:50:01;;;;;;;30.85;19.92;;;;;;;16.58;75.16;99892.38;5012601;28;20052;-71
2022/07/30 05:52:28;;;;;;;34.55;20.83;;;;;;;16.61;75.00;99902.81;5012888;28;20042;-70
2022/07/30 05:54:55;;;;;;;33.13;22.17;;;;;;;16.57;75.49;99901.34;5012585;28;20655;-70
2022/07/30 05:57:21;;;;;;;31.02;20.35;;;;;;;16.57;75.49;99902.19;5012590;28;20128;-71
2022/07/30 05:59:49;;;;;;;34.08;23.33;;;;;;;16.51;75.80;99898.16;5012376;28;20057;-70
2022/07/30 06:02:16;;;;;;;36.58;22.63;;;;;;;16.47;76.09;99901.16;5012866;28;20046;-70
2022/07/30 06:04:42;;;;;;;32.78;21.17;;;;;;;16.43;76.75;99897.84;5013858;28;20057;-70
2022/07/30 06:07:09;;;;;;;38.40;23.38;;;;;;;16.42;77.16;99906.81;5014064;28;20045;-72
2022/07/30 06:09:36;;;;;;;34.60;22.75;;;;;;;16.46;77.06;99905.59;5013561;28;20127;-70
2022/07/30 06:12:02;;;;;;;34.38;23.02;;;;;;;16.44;76.98;99906.69;5012917;28;20138;-71
2022/07/30 06:14:30;;;;;;;33.38;22.17;;;;;;;16.50;76.60;99903.59;5015652;28;20049;-70
2022/07/30 06:16:58;;;;;;;30.92;20.42;;;;;;;16.51;76.91;99906.16;5021995;28;20465;-68
2022/07/30 06:19:25;;;;;;;33.47;20.23;;;;;;;16.49;77.14;99905.41;5032218;28;20522;-70
2022/07/30 06:21:52;;;;;;;33.22;23.15;;;;;;;16.47;77.93;99912.66;5031794;28;20171;-70
2022/07/30 06:24:19;;;;;;;31.02;21.98;;;;;;;16.43;77.85;99911.16;5031687;28;20085;-70
2022/07/30 06:26:45;;;;;;;32.17;21.48;;;;;;;16.44;78.00;99914.66;5031735;28;20056;-71
2022/07/30 06:29:13;;;;;;;29.15;20.38;;;;;;;16.44;77.72;99915.53;5032259;28;20096;-70
2022/07/30 06:31:40;;;;;;;28.95;22.98;;;;;;;16.43;78.38;99915.63;5031706;28;20041;-69
2022/07/30 06:34:08;;;;;;;39.38;25.85;;;;;;;16.39;78.36;99915.03;5031580;28;20111;-69
2022/07/30 06:36:34;;;;;;;35.63;25.13;;;;;;;16.36;79.34;99917.88;5031731;28;20053;-70
2022/07/30 06:39:01;;;;;;;42.33;28.38;;;;;;;16.31;79.82;99914.69;5031669;28;20049;-68
2022/07/30 06:41:28;;;;;;;34.35;22.33;;;;;;;16.33;79.96;99917.25;5031824;28;20099;-70
2022/07/30 06:43:54;;;;;;;35.65;26.33;;;;;;;16.38;79.41;99926.59;5032077;28;20799;-70
2022/07/30 06:46:21;;;;;;;41.17;25.83;;;;;;;16.41;79.52;99931.69;5033063;28;20053;-70
2022/07/30 06:48:47;;;;;;;41.83;25.15;;;;;;;16.47;79.27;99925.97;5032972;28;20053;-71
2022/07/30 06:51:15;;;;;;;33.00;23.40;;;;;;;16.56;78.83;99934.22;5033379;28;20065;-69
2022/07/30 06:53:44;;;;;;;44.17;27.17;;;;;;;16.59;78.98;99934.00;5032994;28;20045;-70
2022/07/30 06:56:11;;;;;;;40.33;27.48;;;;;;;16.60;78.96;99925.06;5033250;28;20053;-71
2022/07/30 06:58:38;;;;;;;37.83;25.83;;;;;;;16.63;79.14;99930.16;5032401;28;20096;-71
2022/07/30 07:01:04;;;;;;;36.05;27.10;;;;;;;16.65;78.67;99929.09;5030967;28;20049;-70
2022/07/30 07:03:31;;;;;;;37.72;24.95;;;;;;;16.73;79.18;99928.53;5031605;28;20056;-50
2022/07/30 07:05:58;;;;;;;41.80;27.17;;;;;;;16.95;77.51;99933.19;5030782;28;20049;-50
2022/07/30 07:08:26;;;;;;;37.17;24.13;;;;;;;17.36;76.64;99930.09;5030735;28;20540;-49
2022/07/30 07:10:52;;;;;;;33.30;22.58;;;;;;;17.79;73.91;99928.66;5030697;28;20049;-46
2022/07/30 07:13:19;;;;;;;35.95;26.42;;;;;;;17.95;72.82;99936.38;5028936;28;20480;-47
2022/07/30 07:15:45;;;;;;;32.53;22.85;;;;;;;18.15;71.92;99932.13;5030729;28;20061;-49
2022/07/30 07:18:14;;;;;;;35.13;23.60;;;;;;;18.26;71.40;99933.94;5030748;28;20056;-48
2022/07/30 07:20:42;;;;;;;29.55;20.75;;;;;;;18.40;69.38;99931.03;5030260;28;20057;-47
2022/07/30 07:23:08;;;;;;;32.00;21.50;;;;;;;18.43;69.26;99938.81;5030667;28;20103;-49
2022/07/30 07:25:36;;;;;;;37.38;26.15;;;;;;;18.40;68.50;99942.56;5030457;28;20049;-47
2022/07/30 07:28:04;;;;;;;37.05;22.45;;;;;;;18.48;68.35;99944.63;5030519;28;20103;-47
2022/07/30 07:30:30;;;;;;;36.08;24.92;;;;;;;18.49;67.68;99948.16;5030548;28;20456;-46
2022/07/30 07:32:57;;;;;;;29.20;21.38;;;;;;;18.53;67.82;99950.44;5030439;28;20502;-51
2022/07/30 07:35:23;;;;;;;30.63;23.73;;;;;;;18.65;67.40;99956.63;5030484;28;20434;-45
2022/07/30 07:37:50;;;;;;;30.52;21.00;;;;;;;18.72;66.46;99955.16;5030466;28;20049;-46
2022/07/30 07:40:17;;;;;;;24.33;18.17;;;;;;;18.82;66.12;99950.81;5030072;28;20561;-45
2022/07/30 07:42:45;;;;;;;30.20;20.30;;;;;;;19.01;65.25;99950.16;5016274;28;20049;-51
2022/07/30 07:45:11;;;;;;;28.10;20.10;;;;;;;19.16;63.74;99949.88;5010238;28;20050;-49
2022/07/30 07:47:43;;;;;;;21.27;15.45;;;;;;;19.34;63.40;99943.00;5010366;28;20108;-50
2022/07/30 07:50:10;;;;;;;31.80;18.73;;;;;;;19.59;62.41;99948.97;5019228;28;20049;-52
2022/07/30 07:52:36;;;;;;;22.58;15.20;;;;;;;19.76;61.52;99945.75;5040046;28;20124;-45
2022/07/30 07:55:03;;;;;;;23.48;16.38;;;;;;;19.60;61.30;99946.19;5042008;28;20055;-70
2022/07/30 07:57:30;;;;;;;20.85;15.50;;;;;;;19.81;60.39;99940.84;5049818;28;20049;-71
2022/07/30 07:59:58;;;;;;;22.45;14.85;;;;;;;19.72;60.19;99949.69;5049506;28;20055;-71
2022/07/30 08:02:25;;;;;;;25.02;14.18;;;;;;;19.87;59.09;99951.03;5049766;28;20072;-71
2022/07/30 08:04:52;;;;;;;21.00;14.00;;;;;;;19.87;59.44;99950.19;5050073;28;20095;-72
2022/07/30 08:07:19;;;;;;;21.33;13.23;;;;;;;20.54;57.98;99951.50;5042453;28;20484;-70
2022/07/30 08:09:49;;;;;;;22.80;13.55;;;;;;;20.58;57.15;99948.47;5023622;28;20150;-71
2022/07/30 08:12:16;;;;;;;18.58;13.77;;;;;;;21.08;55.63;99944.06;5028846;28;20527;-71
2022/07/30 08:14:43;;;;;;;21.63;13.65;;;;;;;21.54;54.61;99942.56;5029628;28;20045;-70
2022/07/30 08:17:11;;;;;;;17.98;12.00;;;;;;;21.73;54.02;99947.06;5030292;28;20448;-71
2022/07/30 08:19:37;;;;;;;16.38;13.90;;;;;;;21.92;53.79;99941.66;5029762;28;20045;-70
2022/07/30 08:22:06;;;;;;;19.60;12.95;;;;;;;22.01;52.92;99937.25;5029915;28;20049;-70
2022/07/30 08:24:33;;;;;;;22.45;13.98;;;;;;;21.87;53.12;99944.75;5029471;28;20055;-71
2022/07/30 08:27:00;;;;;;;17.95;11.82;;;;;;;21.51;53.76;99950.88;5029617;28;20045;-70
2022/07/30 08:29:26;;;;;;;18.70;12.07;;;;;;;21.26;54.36;99954.94;5029555;28;20140;-45
2022/07/30 08:31:53;;;;;;;20.15;13.60;;;;;;;21.14;54.47;99957.78;5029686;28;20054;-52
2022/07/30 08:34:21;;;;;;;23.95;14.40;;;;;;;21.00;55.89;99955.50;5029098;28;20049;-54
2022/07/30 08:36:48;;;;;;;18.25;12.07;;;;;;;21.02;55.07;99945.47;5029451;28;20568;-48
2022/07/30 08:39:14;;;;;;;16.58;12.57;;;;;;;20.99;55.21;99946.59;5029455;28;20386;-61
2022/07/30 08:41:42;;;;;;;19.45;13.73;;;;;;;21.07;55.48;99948.59;5029341;28;20049;-62
2022/07/30 08:44:11;;;;;;;21.65;13.10;;;;;;;21.29;54.92;99943.94;5029011;28;20100;-51
2022/07/30 08:46:41;;;;;;;14.52;10.77;;;;;;;21.48;53.88;99943.97;5029025;28;20046;-47
2022/07/30 08:49:08;;;;;;;16.60;12.27;;;;;;;21.32;53.79;99947.19;5029009;28;20049;-49
2022/07/30 08:51:36;;;;;;;19.48;11.45;;;;;;;21.31;53.43;99944.63;5029296;28;20045;-46
2022/07/30 08:54:04;;;;;;;16.27;11.38;;;;;;;21.38;53.50;99948.44;5028991;28;20098;-47
2022/07/30 08:56:32;;;;;;;16.55;11.10;;;;;;;21.37;53.58;99949.47;5028742;28;20476;-47
2022/07/30 08:58:59;;;;;;;19.13;10.55;;;;;;;21.57;53.08;99950.31;5028585;28;20053;-47
2022/07/30 09:01:26;;;;;;;14.32;10.20;;;;;;;21.89;52.14;99947.31;5029134;28;20436;-60
2022/07/30 09:03:53;;;;;;;13.25;10.23;;;;;;;22.23;51.27;99941.47;5022079;28;20073;-53
2022/07/30 09:06:19;;;;;;;14.00;9.90;;;;;;;22.59;50.12;99945.09;5027328;28;20053;-50
2022/07/30 09:08:47;;;;;;;15.52;9.13;;;;;;;23.02;48.92;99948.19;5008886;28;20081;-53
2022/07/30 09:11:14;;;;;;;13.88;10.07;;;;;;;23.53;48.14;99954.72;5008461;28;20046;-52
2022/07/30 09:13:43;;;;;;;17.20;10.55;;;;;;;23.32;48.17;99950.50;5024434;28;20057;-49
2022/07/30 09:16:20;;;;;;;14.77;8.85;;;;;;;23.50;47.09;99953.16;5028539;28;20107;-50
2022/07/30 09:18:46;;;;;;;11.20;8.38;;;;;;;23.96;44.86;99947.69;5028707;28;20055;-48
2022/07/30 09:21:17;;;;;;;18.42;8.93;;;;;;;24.68;43.31;99948.25;5028841;28;20049;-47
2022/07/30 09:23:57;;;;;;;14.63;8.52;;;;;;;25.21;42.58;99939.00;5028285;28;20081;-51
2022/07/30 09:26:24;;;;;;;12.45;9.32;;;;;;;25.79;40.80;99931.72;5028637;28;20108;-48
2022/07/30 09:28:51;;;;;;;12.27;8.25;;;;;;;25.64;41.03;99928.88;5028028;28;20537;-48
2022/07/30 09:31:19;;;;;;;16.33;8.50;;;;;;;26.05;40.64;99931.56;5028445;28;20049;-49
2022/07/30 09:33:46;;;;;;;10.98;8.05;;;;;;;26.62;38.54;99927.84;5028524;28;20387;-47
2022/07/30 09:36:16;;;;;;;10.27;7.25;;;;;;;27.13;37.91;99924.72;5028196;28;20042;-53
2022/07/30 09:38:47;;;;;;;14.50;8.77;;;;;;;27.69;36.61;99922.59;5027858;28;20045;-53
2022/07/30 09:41:17;;;;;;;16.50;8.73;;;;;;;28.34;36.29;99921.09;5024173;28;20477;-51
2022/07/30 09:43:45;;;;;;;14.18;7.72;;;;;;;28.65;34.61;99920.91;5021067;28;20085;-52
2022/07/30 09:46:12;;;;;;;9.18;6.43;;;;;;;29.02;34.14;99923.63;5028054;28;20080;-50
2022/07/30 09:48:39;;;;;;;11.73;6.93;;;;;;;28.89;32.07;99919.72;5028395;28;20073;-54
2022/07/30 09:51:06;;;;;;;13.15;7.53;;;;;;;29.10;32.40;99923.56;5028556;28;20041;-53
2022/07/30 09:53:33;;;;;;;9.82;7.25;;;;;;;29.21;32.26;99920.31;5028402;28;20516;-49
2022/07/30 09:56:00;;;;;;;10.57;7.35;;;;;;;29.25;31.13;99928.91;5025841;28;20041;-54
2022/07/30 09:58:39;;;;;;;11.25;7.22;;;;;;;29.11;31.87;99919.78;5028141;28;20046;-49
2022/07/30 10:01:06;;;;;;;10.13;5.72;;;;;;;29.43;31.93;99913.00;5024651;28;20125;-49
2022/07/30 10:03:33;;;;;;;9.35;6.68;;;;;;;29.73;31.49;99921.88;5028321;28;20042;-53
2022/07/30 10:06:00;;;;;;;12.80;7.18;;;;;;;30.03;30.86;99918.09;5028092;28;20056;-53
2022/07/30 10:08:39;;;;;;;10.07;7.05;;;;;;;30.37;30.50;99923.59;5028171;28;20049;-48
2022/07/30 10:11:06;;;;;;;10.63;8.07;;;;;;;30.09;30.56;99922.75;5028255;28;20545;-50
2022/07/30 10:13:34;;;;;;;11.90;8.63;;;;;;;29.86;31.03;99923.84;5028030;28;20053;-50
2022/07/30 10:16:05;;;;;;;11.75;7.60;;;;;;;29.78;30.69;99923.97;5028265;28;20049;-48
2022/07/30 10:18:32;;;;;;;7.82;5.47;;;;;;;30.14;30.21;99926.53;5028376;28;20052;-52
2022/07/30 10:21:00;;;;;;;8.88;6.45;;;;;;;30.09;29.96;99923.56;5028142;28;20049;-49
2022/07/30 10:23:28;;;;;;;8.68;6.28;;;;;;;30.33;29.91;99918.75;5028770;28;20133;-46
2022/07/30 10:25:55;;;;;;;7.90;6.20;;;;;;;30.43;29.35;99930.09;5027928;28;20037;-48
2022/07/30 10:28:23;;;;;;;9.35;6.40;;;;;;;30.55;29.25;99914.03;5028025;28;20050;-52
2022/07/30 10:30:50;;;;;;;8.30;5.40;;;;;;;30.44;29.42;99920.88;5028198;28;20509;-48
2022/07/30 10:33:21;;;;;;;9.90;5.78;;;;;;;30.70;29.06;99917.44;5028366;28;20045;-45
2022/07/30 10:35:47;;;;;;;8.30;6.35;;;;;;;30.71;29.32;99910.09;5030062;28;20140;-53
2022/07/30 10:38:17;;;;;;;10.85;6.68;;;;;;;30.43;29.24;99913.75;5031902;28;20060;-52
2022/07/30 10:40:50;;;;;;;9.70;6.43;;;;;;;30.12;29.69;99908.75;5031550;28;20137;-50
2022/07/30 10:44:00;;;;;;;12.73;6.47;;;;;;;30.33;29.38;99908.69;5031627;28;20529;-49
2022/07/30 10:46:42;;;;;;;12.43;6.65;;;;;;;30.15;29.27;99903.75;5031857;28;20128;-50
2022/07/30 10:49:13;;;;;;;8.65;5.55;;;;;;;30.32;29.62;99907.03;5031571;28;20050;-52
2022/07/30 10:51:44;;;;;;;10.05;5.40;;;;;;;30.48;29.28;99905.84;5032112;28;20061;-52
2022/07/30 10:54:38;;;;;;;11.88;4.50;;;;;;;30.97;28.39;99907.50;5031390;28;20580;-54
2022/07/30 10:57:09;;;;;;;14.27;6.10;;;;;;;30.98;28.11;99903.72;5031854;28;20449;-67
2022/07/30 11:00:13;;;;;;;12.90;6.55;;;;;;;30.67;29.01;99893.34;5031325;28;20081;-67
2022/07/30 11:02:40;;;;;;;10.10;6.32;;;;;;;30.04;29.86;99901.59;4970074;28;20108;-66
2022/07/30 11:05:27;;;;;;;7.13;5.30;;;;;;;29.59;30.23;99903.75;5019429;28;20132;-66
2022/07/30 11:07:54;;;;;;;12.25;6.53;;;;;;;28.85;31.25;99904.88;5019140;28;20508;-65
2022/07/30 11:10:35;;;;;;;8.90;5.95;;;;;;;28.53;32.44;99902.63;5022781;28;20053;-65
2022/07/30 11:13:02;;;;;;;14.57;7.68;;;;;;;28.01;33.37;99904.38;5031343;28;20052;-65
2022/07/30 11:15:54;;;;;;;10.05;7.13;;;;;;;27.58;33.94;99895.94;5030404;28;20049;-66
2022/07/30 11:18:24;;;;;;;13.30;6.55;;;;;;;27.29;35.08;99894.00;5030921;28;20773;-65
2022/07/30 11:21:15;;;;;;;10.38;6.97;;;;;;;26.87;35.67;99893.41;5030679;28;20111;-67
2022/07/30 11:23:45;;;;;;;10.82;6.05;;;;;;;26.87;35.47;99893.41;5030803;28;20050;-67
2022/07/30 11:26:48;;;;;;;11.35;6.47;;;;;;;26.83;36.14;99896.63;5030456;28;20050;-66
2022/07/30 11:29:41;;;;;;;14.60;6.13;;;;;;;26.61;35.97;99890.19;5030810;28;20412;-66
2022/07/30 11:32:28;;;;;;;13.25;6.55;;;;;;;26.59;36.13;99893.06;5030952;28;20050;-65